aviador You're here:

ZBTJ Decoded Metar

TIANJIN in CHINA
Report Time2017-09-24 01:00:00
UTC Time2017-09-24 01:28:47
Flight Rules ifr IFR
Wind240° at 4 kt
W.Decomp.*RWY 16: 0.3 kt HW 4.0 kt RCW
W.Rank240° ranks 4
Current wind is below 240° avg. (6.2)
Visibility3500 m
Phenomena:Haze
Clouds:N/A
Expected CloudBase > 3,200 ft AGL from Temp-Dew spread
CeilingNone
Temp25°C (ISA +10)
Dew Point17°C (61% RH)
QNH1010 hPa
Density Alt1,529 ft
Elevation10 ft
Report Wrong Elevation
Raw Report
METAR ZBTJ 240100Z 24002MPS 190V280 3500 HZ NSC 25/17 Q1010 NOSIG=

Extra information for ZBTJ:More info

Metar Taf Metar & Taf Last 4 Metars F.Rules Stats Wind Profile Meteogram Temp Stats Airport Information Weather charts Add Link Nearby VenuesMetar ALERT Operation Metar Decoded Social comments